sensor_id;sensor_type;location;lat;lon;timestamp;P1;durP1;ratioP1;P2;durP2;ratioP2
26756;SDS011;23848;49.798;10.228;2023-12-28T00:00:51;9.10;;;5.15;;
26756;SDS011;23848;49.798;10.228;2023-12-28T00:03:19;9.38;;;5.50;;
26756;SDS011;23848;49.798;10.228;2023-12-28T00:05:48;8.30;;;5.70;;
26756;SDS011;23848;49.798;10.228;2023-12-28T00:08:16;8.20;;;5.07;;
26756;SDS011;23848;49.798;10.228;2023-12-28T00:10:45;11.27;;;5.47;;
26756;SDS011;23848;49.798;10.228;2023-12-28T00:13:14;10.57;;;5.30;;
26756;SDS011;23848;49.798;10.228;2023-12-28T00:15:43;10.45;;;6.00;;
26756;SDS011;23848;49.798;10.228;2023-12-28T00:18:11;10.82;;;5.53;;
26756;SDS011;23848;49.798;10.228;2023-12-28T00:20:40;8.15;;;4.00;;
26756;SDS011;23848;49.798;10.228;2023-12-28T00:23:08;6.32;;;3.92;;
26756;SDS011;23848;49.798;10.228;2023-12-28T00:25:36;5.43;;;3.45;;
26756;SDS011;23848;49.798;10.228;2023-12-28T00:28:05;5.95;;;3.67;;
26756;SDS011;23848;49.798;10.228;2023-12-28T00:30:35;4.97;;;2.95;;
26756;SDS011;23848;49.798;10.228;2023-12-28T00:33:03;5.20;;;3.00;;
26756;SDS011;23848;49.798;10.228;2023-12-28T00:35:32;6.13;;;3.55;;
26756;SDS011;23848;49.798;10.228;2023-12-28T00:38:00;4.85;;;3.03;;
26756;SDS011;23848;49.798;10.228;2023-12-28T00:40:29;6.63;;;3.35;;
26756;SDS011;23848;49.798;10.228;2023-12-28T00:42:57;5.03;;;3.10;;
26756;SDS011;23848;49.798;10.228;2023-12-28T00:45:25;4.72;;;3.20;;
26756;SDS011;23848;49.798;10.228;2023-12-28T00:47:55;6.80;;;3.30;;
26756;SDS011;23848;49.798;10.228;2023-12-28T00:50:24;6.10;;;3.38;;
26756;SDS011;23848;49.798;10.228;2023-12-28T00:52:53;5.93;;;3.50;;
26756;SDS011;23848;49.798;10.228;2023-12-28T00:55:22;6.22;;;3.58;;
26756;SDS011;23848;49.798;10.228;2023-12-28T00:57:50;5.80;;;3.53;;
26756;SDS011;23848;49.798;10.228;2023-12-28T01:00:19;4.78;;;3.42;;
26756;SDS011;23848;49.798;10.228;2023-12-28T01:02:48;4.85;;;3.15;;
26756;SDS011;23848;49.798;10.228;2023-12-28T01:05:18;5.85;;;3.58;;
26756;SDS011;23848;49.798;10.228;2023-12-28T01:07:47;5.60;;;3.30;;
26756;SDS011;23848;49.798;10.228;2023-12-28T01:10:16;5.38;;;3.00;;
26756;SDS011;23848;49.798;10.228;2023-12-28T01:12:44;6.60;;;3.15;;
26756;SDS011;23848;49.798;10.228;2023-12-28T01:15:12;6.00;;;3.80;;
26756;SDS011;23848;49.798;10.228;2023-12-28T01:17:44;5.78;;;3.47;;
26756;SDS011;23848;49.798;10.228;2023-12-28T01:20:13;7.68;;;3.83;;
26756;SDS011;23848;49.798;10.228;2023-12-28T01:22:42;4.90;;;3.17;;
26756;SDS011;23848;49.798;10.228;2023-12-28T01:25:11;5.85;;;3.30;;
26756;SDS011;23848;49.798;10.228;2023-12-28T01:27:39;6.32;;;3.67;;
26756;SDS011;23848;49.798;10.228;2023-12-28T01:30:08;7.88;;;3.95;;
26756;SDS011;23848;49.798;10.228;2023-12-28T01:32:37;6.13;;;3.75;;
26756;SDS011;23848;49.798;10.228;2023-12-28T01:35:05;5.72;;;3.63;;
26756;SDS011;23848;49.798;10.228;2023-12-28T01:37:34;8.23;;;3.90;;
26756;SDS011;23848;49.798;10.228;2023-12-28T01:40:05;6.47;;;3.97;;
26756;SDS011;23848;49.798;10.228;2023-12-28T01:42:33;5.80;;;3.90;;
26756;SDS011;23848;49.798;10.228;2023-12-28T01:45:02;5.40;;;3.53;;
26756;SDS011;23848;49.798;10.228;2023-12-28T01:47:30;6.32;;;3.72;;
26756;SDS011;23848;49.798;10.228;2023-12-28T01:49:58;6.63;;;3.88;;
26756;SDS011;23848;49.798;10.228;2023-12-28T01:52:28;4.78;;;2.97;;
26756;SDS011;23848;49.798;10.228;2023-12-28T01:54:56;5.35;;;3.50;;
26756;SDS011;23848;49.798;10.228;2023-12-28T01:57:26;5.95;;;3.40;;
26756;SDS011;23848;49.798;10.228;2023-12-28T01:59:55;5.43;;;3.70;;
26756;SDS011;23848;49.798;10.228;2023-12-28T02:02:24;8.35;;;4.47;;
26756;SDS011;23848;49.798;10.228;2023-12-28T02:04:53;9.73;;;5.13;;
26756;SDS011;23848;49.798;10.228;2023-12-28T02:07:22;10.18;;;5.18;;
26756;SDS011;23848;49.798;10.228;2023-12-28T02:09:51;9.30;;;4.90;;
26756;SDS011;23848;49.798;10.228;2023-12-28T02:12:19;10.20;;;3.95;;
26756;SDS011;23848;49.798;10.228;2023-12-28T02:14:49;9.30;;;4.68;;
26756;SDS011;23848;49.798;10.228;2023-12-28T02:17:19;8.18;;;4.00;;
26756;SDS011;23848;49.798;10.228;2023-12-28T02:19:51;5.00;;;3.33;;
26756;SDS011;23848;49.798;10.228;2023-12-28T02:22:21;6.22;;;4.07;;
26756;SDS011;23848;49.798;10.228;2023-12-28T02:24:56;6.93;;;3.45;;
26756;SDS011;23848;49.798;10.228;2023-12-28T02:27:24;5.32;;;2.70;;
26756;SDS011;23848;49.798;10.228;2023-12-28T02:29:53;6.68;;;3.65;;
26756;SDS011;23848;49.798;10.228;2023-12-28T02:32:22;7.18;;;3.45;;
26756;SDS011;23848;49.798;10.228;2023-12-28T02:34:53;7.32;;;3.38;;
26756;SDS011;23848;49.798;10.228;2023-12-28T02:37:24;7.45;;;3.22;;
26756;SDS011;23848;49.798;10.228;2023-12-28T02:39:54;4.68;;;3.15;;
26756;SDS011;23848;49.798;10.228;2023-12-28T02:42:24;6.00;;;3.45;;
26756;SDS011;23848;49.798;10.228;2023-12-28T02:44:53;6.32;;;3.63;;
26756;SDS011;23848;49.798;10.228;2023-12-28T02:47:21;4.97;;;2.90;;
26756;SDS011;23848;49.798;10.228;2023-12-28T02:49:49;6.50;;;3.00;;
26756;SDS011;23848;49.798;10.228;2023-12-28T02:52:18;6.00;;;3.53;;
26756;SDS011;23848;49.798;10.228;2023-12-28T02:54:47;6.50;;;3.45;;
26756;SDS011;23848;49.798;10.228;2023-12-28T02:57:15;6.85;;;3.55;;
26756;SDS011;23848;49.798;10.228;2023-12-28T02:59:46;4.85;;;3.08;;
26756;SDS011;23848;49.798;10.228;2023-12-28T03:02:14;4.57;;;2.70;;
26756;SDS011;23848;49.798;10.228;2023-12-28T03:04:42;5.60;;;3.00;;
26756;SDS011;23848;49.798;10.228;2023-12-28T03:07:11;4.55;;;2.47;;
26756;SDS011;23848;49.798;10.228;2023-12-28T03:09:39;5.60;;;2.95;;
26756;SDS011;23848;49.798;10.228;2023-12-28T03:12:08;4.15;;;2.30;;
26756;SDS011;23848;49.798;10.228;2023-12-28T03:14:36;4.25;;;2.42;;
26756;SDS011;23848;49.798;10.228;2023-12-28T03:17:06;5.25;;;2.63;;
26756;SDS011;23848;49.798;10.228;2023-12-28T03:19:34;4.40;;;2.78;;
26756;SDS011;23848;49.798;10.228;2023-12-28T03:22:04;4.20;;;2.30;;
26756;SDS011;23848;49.798;10.228;2023-12-28T03:24:32;3.88;;;2.00;;
26756;SDS011;23848;49.798;10.228;2023-12-28T03:27:00;3.72;;;1.77;;
26756;SDS011;23848;49.798;10.228;2023-12-28T03:29:29;4.05;;;2.00;;
26756;SDS011;23848;49.798;10.228;2023-12-28T03:31:57;4.25;;;2.03;;
26756;SDS011;23848;49.798;10.228;2023-12-28T03:34:27;3.30;;;1.80;;
26756;SDS011;23848;49.798;10.228;2023-12-28T03:36:56;3.47;;;1.48;;
26756;SDS011;23848;49.798;10.228;2023-12-28T03:39:25;3.40;;;1.60;;
26756;SDS011;23848;49.798;10.228;2023-12-28T03:41:53;3.47;;;2.00;;
26756;SDS011;23848;49.798;10.228;2023-12-28T03:44:22;3.03;;;1.55;;
26756;SDS011;23848;49.798;10.228;2023-12-28T03:46:50;4.68;;;1.92;;
26756;SDS011;23848;49.798;10.228;2023-12-28T03:49:19;3.17;;;1.77;;
26756;SDS011;23848;49.798;10.228;2023-12-28T03:51:50;2.75;;;1.60;;
26756;SDS011;23848;49.798;10.228;2023-12-28T03:54:19;3.97;;;1.98;;
26756;SDS011;23848;49.798;10.228;2023-12-28T03:56:47;4.22;;;2.00;;
26756;SDS011;23848;49.798;10.228;2023-12-28T03:59:15;3.90;;;1.77;;
26756;SDS011;23848;49.798;10.228;2023-12-28T04:01:44;3.58;;;2.17;;
26756;SDS011;23848;49.798;10.228;2023-12-28T04:04:13;4.28;;;1.92;;
26756;SDS011;23848;49.798;10.228;2023-12-28T04:06:41;2.50;;;1.35;;
26756;SDS011;23848;49.798;10.228;2023-12-28T04:09:12;3.65;;;1.92;;
26756;SDS011;23848;49.798;10.228;2023-12-28T04:11:41;2.92;;;1.60;;
26756;SDS011;23848;49.798;10.228;2023-12-28T04:14:09;2.58;;;1.55;;
26756;SDS011;23848;49.798;10.228;2023-12-28T04:16:38;3.45;;;1.63;;
26756;SDS011;23848;49.798;10.228;2023-12-28T04:19:06;2.58;;;1.48;;
26756;SDS011;23848;49.798;10.228;2023-12-28T04:21:35;2.78;;;1.80;;
26756;SDS011;23848;49.798;10.228;2023-12-28T04:24:03;3.67;;;1.95;;
26756;SDS011;23848;49.798;10.228;2023-12-28T04:26:33;2.97;;;1.63;;
26756;SDS011;23848;49.798;10.228;2023-12-28T04:29:01;4.18;;;2.05;;
26756;SDS011;23848;49.798;10.228;2023-12-28T04:31:30;2.97;;;1.58;;
26756;SDS011;23848;49.798;10.228;2023-12-28T04:33:58;2.92;;;1.50;;
26756;SDS011;23848;49.798;10.228;2023-12-28T04:36:27;3.58;;;1.90;;
26756;SDS011;23848;49.798;10.228;2023-12-28T04:38:55;3.40;;;2.20;;
26756;SDS011;23848;49.798;10.228;2023-12-28T04:41:24;2.88;;;1.75;;
26756;SDS011;23848;49.798;10.228;2023-12-28T04:43:53;4.07;;;1.90;;
26756;SDS011;23848;49.798;10.228;2023-12-28T04:46:22;3.00;;;1.92;;
26756;SDS011;23848;49.798;10.228;2023-12-28T04:48:50;4.55;;;2.25;;
26756;SDS011;23848;49.798;10.228;2023-12-28T04:51:19;4.07;;;1.75;;
26756;SDS011;23848;49.798;10.228;2023-12-28T04:53:47;3.80;;;1.77;;
26756;SDS011;23848;49.798;10.228;2023-12-28T04:56:18;3.72;;;2.08;;
26756;SDS011;23848;49.798;10.228;2023-12-28T04:58:46;3.15;;;1.88;;
26756;SDS011;23848;49.798;10.228;2023-12-28T05:01:16;2.60;;;1.67;;
26756;SDS011;23848;49.798;10.228;2023-12-28T05:03:44;3.22;;;1.83;;
26756;SDS011;23848;49.798;10.228;2023-12-28T05:06:13;3.03;;;1.55;;
26756;SDS011;23848;49.798;10.228;2023-12-28T05:08:41;3.58;;;1.90;;
26756;SDS011;23848;49.798;10.228;2023-12-28T05:11:09;3.30;;;1.80;;
26756;SDS011;23848;49.798;10.228;2023-12-28T05:13:39;3.63;;;1.88;;
26756;SDS011;23848;49.798;10.228;2023-12-28T05:16:07;3.80;;;2.17;;
26756;SDS011;23848;49.798;10.228;2023-12-28T05:18:37;3.42;;;2.00;;
26756;SDS011;23848;49.798;10.228;2023-12-28T05:21:05;3.22;;;2.05;;
26756;SDS011;23848;49.798;10.228;2023-12-28T05:23:34;3.08;;;1.80;;
26756;SDS011;23848;49.798;10.228;2023-12-28T05:26:02;3.47;;;2.10;;
26756;SDS011;23848;49.798;10.228;2023-12-28T05:28:31;4.30;;;2.42;;
26756;SDS011;23848;49.798;10.228;2023-12-28T05:30:59;3.63;;;2.22;;
26756;SDS011;23848;49.798;10.228;2023-12-28T05:33:28;3.70;;;2.20;;
26756;SDS011;23848;49.798;10.228;2023-12-28T05:35:58;3.20;;;1.70;;
26756;SDS011;23848;49.798;10.228;2023-12-28T05:38:26;3.67;;;1.88;;
26756;SDS011;23848;49.798;10.228;2023-12-28T05:40:54;3.28;;;1.98;;
26756;SDS011;23848;49.798;10.228;2023-12-28T05:43:23;3.05;;;1.70;;
26756;SDS011;23848;49.798;10.228;2023-12-28T05:45:51;4.32;;;2.20;;
26756;SDS011;23848;49.798;10.228;2023-12-28T05:48:20;3.97;;;2.22;;
26756;SDS011;23848;49.798;10.228;2023-12-28T05:50:48;3.75;;;1.77;;
26756;SDS011;23848;49.798;10.228;2023-12-28T05:53:18;3.70;;;2.03;;
26756;SDS011;23848;49.798;10.228;2023-12-28T05:55:46;3.83;;;2.00;;
26756;SDS011;23848;49.798;10.228;2023-12-28T05:58:15;3.80;;;2.17;;
26756;SDS011;23848;49.798;10.228;2023-12-28T06:00:43;3.17;;;1.85;;
26756;SDS011;23848;49.798;10.228;2023-12-28T06:03:12;4.35;;;1.85;;
26756;SDS011;23848;49.798;10.228;2023-12-28T06:05:41;4.10;;;1.67;;
26756;SDS011;23848;49.798;10.228;2023-12-28T06:08:10;4.25;;;1.92;;
26756;SDS011;23848;49.798;10.228;2023-12-28T06:10:40;4.43;;;1.60;;
26756;SDS011;23848;49.798;10.228;2023-12-28T06:13:08;3.15;;;1.60;;
26756;SDS011;23848;49.798;10.228;2023-12-28T06:15:36;3.63;;;2.00;;
26756;SDS011;23848;49.798;10.228;2023-12-28T06:18:05;2.95;;;1.88;;
26756;SDS011;23848;49.798;10.228;2023-12-28T06:20:33;3.42;;;1.80;;
26756;SDS011;23848;49.798;10.228;2023-12-28T06:23:02;3.90;;;2.20;;
26756;SDS011;23848;49.798;10.228;2023-12-28T06:25:31;4.43;;;1.88;;
26756;SDS011;23848;49.798;10.228;2023-12-28T06:28:00;4.00;;;1.98;;
26756;SDS011;23848;49.798;10.228;2023-12-28T06:30:29;2.58;;;1.55;;
26756;SDS011;23848;49.798;10.228;2023-12-28T06:32:58;2.83;;;1.50;;
26756;SDS011;23848;49.798;10.228;2023-12-28T06:35:26;3.13;;;1.70;;
26756;SDS011;23848;49.798;10.228;2023-12-28T06:37:55;2.15;;;1.10;;
26756;SDS011;23848;49.798;10.228;2023-12-28T06:40:23;3.15;;;1.80;;
26756;SDS011;23848;49.798;10.228;2023-12-28T06:42:52;2.92;;;1.60;;
26756;SDS011;23848;49.798;10.228;2023-12-28T06:45:21;2.55;;;1.10;;
26756;SDS011;23848;49.798;10.228;2023-12-28T06:50:22;3.15;;;1.38;;
26756;SDS011;23848;49.798;10.228;2023-12-28T06:52:51;3.28;;;1.40;;
26756;SDS011;23848;49.798;10.228;2023-12-28T06:55:20;2.38;;;1.10;;
26756;SDS011;23848;49.798;10.228;2023-12-28T06:57:48;3.00;;;1.20;;
26756;SDS011;23848;49.798;10.228;2023-12-28T07:00:17;2.35;;;1.20;;
26756;SDS011;23848;49.798;10.228;2023-12-28T07:05:36;3.50;;;1.48;;
26756;SDS011;23848;49.798;10.228;2023-12-28T07:08:05;2.05;;;1.05;;
26756;SDS011;23848;49.798;10.228;2023-12-28T07:13:42;2.90;;;1.50;;
26756;SDS011;23848;49.798;10.228;2023-12-28T07:16:30;3.10;;;1.53;;
26756;SDS011;23848;49.798;10.228;2023-12-28T07:19:16;2.28;;;1.33;;
26756;SDS011;23848;49.798;10.228;2023-12-28T07:22:14;3.13;;;1.63;;
26756;SDS011;23848;49.798;10.228;2023-12-28T07:24:51;2.70;;;1.30;;
26756;SDS011;23848;49.798;10.228;2023-12-28T07:30:50;3.38;;;1.35;;
26756;SDS011;23848;49.798;10.228;2023-12-28T07:33:30;2.38;;;1.40;;
26756;SDS011;23848;49.798;10.228;2023-12-28T07:36:09;2.33;;;1.30;;
26756;SDS011;23848;49.798;10.228;2023-12-28T07:38:52;2.53;;;1.33;;
26756;SDS011;23848;49.798;10.228;2023-12-28T07:41:38;2.80;;;1.38;;
26756;SDS011;23848;49.798;10.228;2023-12-28T07:44:29;2.33;;;1.20;;
26756;SDS011;23848;49.798;10.228;2023-12-28T07:47:05;3.40;;;1.50;;
26756;SDS011;23848;49.798;10.228;2023-12-28T07:49:46;2.92;;;1.10;;
26756;SDS011;23848;49.798;10.228;2023-12-28T07:55:15;2.17;;;1.10;;
26756;SDS011;23848;49.798;10.228;2023-12-28T07:57:50;3.55;;;1.55;;
26756;SDS011;23848;49.798;10.228;2023-12-28T08:01:08;2.15;;;1.23;;
26756;SDS011;23848;49.798;10.228;2023-12-28T08:06:59;3.03;;;1.10;;
26756;SDS011;23848;49.798;10.228;2023-12-28T08:26:32;1.65;;;1.00;;
26756;SDS011;23848;49.798;10.228;2023-12-28T08:30:05;2.85;;;1.15;;
26756;SDS011;23848;49.798;10.228;2023-12-28T08:59:03;2.88;;;1.48;;
26756;SDS011;23848;49.798;10.228;2023-12-28T09:41:20;3.80;;;1.90;;
26756;SDS011;23848;49.798;10.228;2023-12-28T09:44:10;5.85;;;2.85;;
26756;SDS011;23848;49.798;10.228;2023-12-28T09:47:44;3.92;;;2.05;;
26756;SDS011;23848;49.798;10.228;2023-12-28T09:50:48;4.15;;;1.90;;
26756;SDS011;23848;49.798;10.228;2023-12-28T09:53:37;4.85;;;2.70;;
26756;SDS011;23848;49.798;10.228;2023-12-28T09:58:59;2.47;;;1.35;;
26756;SDS011;23848;49.798;10.228;2023-12-28T10:02:22;3.70;;;1.52;;
26756;SDS011;23848;49.798;10.228;2023-12-28T10:05:20;2.67;;;1.70;;
26756;SDS011;23848;49.798;10.228;2023-12-28T10:33:12;2.35;;;1.63;;
26756;SDS011;23848;49.798;10.228;2023-12-28T10:46:35;2.97;;;1.63;;
26756;SDS011;23848;49.798;10.228;2023-12-28T10:52:18;2.80;;;1.40;;
26756;SDS011;23848;49.798;10.228;2023-12-28T10:55:11;3.47;;;1.70;;
26756;SDS011;23848;49.798;10.228;2023-12-28T10:58:02;3.28;;;1.90;;
26756;SDS011;23848;49.798;10.228;2023-12-28T11:00:46;3.25;;;1.90;;
26756;SDS011;23848;49.798;10.228;2023-12-28T11:14:13;2.85;;;1.70;;
26756;SDS011;23848;49.798;10.228;2023-12-28T11:22:17;2.55;;;1.60;;
26756;SDS011;23848;49.798;10.228;2023-12-28T11:25:32;4.38;;;2.05;;
26756;SDS011;23848;49.798;10.228;2023-12-28T11:28:15;3.15;;;1.98;;
26756;SDS011;23848;49.798;10.228;2023-12-28T11:31:11;2.65;;;1.92;;
26756;SDS011;23848;49.798;10.228;2023-12-28T11:33:47;3.72;;;1.83;;
26756;SDS011;23848;49.798;10.228;2023-12-28T11:36:52;3.75;;;2.10;;
26756;SDS011;23848;49.798;10.228;2023-12-28T11:39:41;3.10;;;1.88;;
26756;SDS011;23848;49.798;10.228;2023-12-28T11:42:36;3.78;;;2.03;;
26756;SDS011;23848;49.798;10.228;2023-12-28T11:50:31;2.53;;;1.50;;
26756;SDS011;23848;49.798;10.228;2023-12-28T11:53:27;3.17;;;1.52;;
26756;SDS011;23848;49.798;10.228;2023-12-28T11:56:27;3.85;;;1.90;;
26756;SDS011;23848;49.798;10.228;2023-12-28T11:59:07;2.28;;;1.40;;
26756;SDS011;23848;49.798;10.228;2023-12-28T12:01:58;2.80;;;1.50;;
26756;SDS011;23848;49.798;10.228;2023-12-28T12:07:53;3.17;;;1.70;;
26756;SDS011;23848;49.798;10.228;2023-12-28T12:11:13;2.95;;;1.90;;
26756;SDS011;23848;49.798;10.228;2023-12-28T12:16:45;3.17;;;1.55;;
26756;SDS011;23848;49.798;10.228;2023-12-28T12:19:39;2.80;;;1.45;;
26756;SDS011;23848;49.798;10.228;2023-12-28T12:22:50;2.70;;;1.52;;
26756;SDS011;23848;49.798;10.228;2023-12-28T12:28:45;2.17;;;1.30;;
26756;SDS011;23848;49.798;10.228;2023-12-28T12:34:45;3.25;;;1.63;;
26756;SDS011;23848;49.798;10.228;2023-12-28T12:37:32;2.53;;;1.45;;
26756;SDS011;23848;49.798;10.228;2023-12-28T14:04:03;3.30;;;1.77;;
26756;SDS011;23848;49.798;10.228;2023-12-28T14:06:37;2.60;;;1.73;;
26756;SDS011;23848;49.798;10.228;2023-12-28T14:09:13;4.97;;;1.92;;
26756;SDS011;23848;49.798;10.228;2023-12-28T14:11:50;2.53;;;1.45;;
26756;SDS011;23848;49.798;10.228;2023-12-28T14:14:21;2.50;;;1.50;;
26756;SDS011;23848;49.798;10.228;2023-12-28T14:17:06;2.88;;;1.50;;
26756;SDS011;23848;49.798;10.228;2023-12-28T14:19:43;2.72;;;1.55;;
26756;SDS011;23848;49.798;10.228;2023-12-28T14:22:17;2.28;;;1.30;;
26756;SDS011;23848;49.798;10.228;2023-12-28T14:24:49;2.55;;;1.38;;
26756;SDS011;23848;49.798;10.228;2023-12-28T14:27:26;2.17;;;1.17;;
26756;SDS011;23848;49.798;10.228;2023-12-28T14:29:58;2.35;;;1.50;;
26756;SDS011;23848;49.798;10.228;2023-12-28T14:32:30;2.20;;;1.40;;
26756;SDS011;23848;49.798;10.228;2023-12-28T14:35:06;2.47;;;1.67;;
26756;SDS011;23848;49.798;10.228;2023-12-28T14:37:38;2.95;;;1.67;;
26756;SDS011;23848;49.798;10.228;2023-12-28T14:40:18;4.07;;;1.50;;
26756;SDS011;23848;49.798;10.228;2023-12-28T14:42:55;2.13;;;1.35;;
26756;SDS011;23848;49.798;10.228;2023-12-28T14:45:32;4.53;;;2.22;;
26756;SDS011;23848;49.798;10.228;2023-12-28T14:48:18;4.43;;;2.00;;
26756;SDS011;23848;49.798;10.228;2023-12-28T14:51:15;2.97;;;1.77;;
26756;SDS011;23848;49.798;10.228;2023-12-28T14:54:04;3.92;;;1.65;;
26756;SDS011;23848;49.798;10.228;2023-12-28T15:03:00;2.92;;;1.50;;
26756;SDS011;23848;49.798;10.228;2023-12-28T15:05:34;4.50;;;2.22;;
26756;SDS011;23848;49.798;10.228;2023-12-28T15:08:15;3.90;;;1.98;;
26756;SDS011;23848;49.798;10.228;2023-12-28T15:11:02;2.58;;;1.38;;
26756;SDS011;23848;49.798;10.228;2023-12-28T15:14:13;2.80;;;1.50;;
26756;SDS011;23848;49.798;10.228;2023-12-28T15:16:47;2.70;;;1.40;;
26756;SDS011;23848;49.798;10.228;2023-12-28T15:19:38;2.38;;;1.00;;
26756;SDS011;23848;49.798;10.228;2023-12-28T15:22:51;2.45;;;1.30;;
26756;SDS011;23848;49.798;10.228;2023-12-28T15:28:05;1.95;;;1.20;;
26756;SDS011;23848;49.798;10.228;2023-12-28T15:31:02;1.52;;;0.90;;
26756;SDS011;23848;49.798;10.228;2023-12-28T15:34:03;1.45;;;0.90;;
26756;SDS011;23848;49.798;10.228;2023-12-28T15:45:10;2.10;;;1.20;;
26756;SDS011;23848;49.798;10.228;2023-12-28T15:47:48;1.95;;;1.05;;
26756;SDS011;23848;49.798;10.228;2023-12-28T15:50:25;1.80;;;1.02;;
26756;SDS011;23848;49.798;10.228;2023-12-28T15:53:07;1.52;;;0.93;;
26756;SDS011;23848;49.798;10.228;2023-12-28T15:55:36;2.42;;;1.42;;
26756;SDS011;23848;49.798;10.228;2023-12-28T15:58:34;2.40;;;1.58;;
26756;SDS011;23848;49.798;10.228;2023-12-28T16:03:49;2.58;;;1.33;;
26756;SDS011;23848;49.798;10.228;2023-12-28T16:06:29;2.75;;;1.00;;
26756;SDS011;23848;49.798;10.228;2023-12-28T16:09:06;2.65;;;1.20;;
26756;SDS011;23848;49.798;10.228;2023-12-28T16:12:02;3.42;;;1.73;;
26756;SDS011;23848;49.798;10.228;2023-12-28T16:14:51;4.07;;;2.20;;
26756;SDS011;23848;49.798;10.228;2023-12-28T16:17:26;2.78;;;1.40;;
26756;SDS011;23848;49.798;10.228;2023-12-28T16:19:57;2.42;;;1.40;;
26756;SDS011;23848;49.798;10.228;2023-12-28T16:22:32;4.18;;;2.20;;
26756;SDS011;23848;49.798;10.228;2023-12-28T16:25:04;2.45;;;1.35;;
26756;SDS011;23848;49.798;10.228;2023-12-28T16:27:36;2.42;;;1.67;;
26756;SDS011;23848;49.798;10.228;2023-12-28T16:30:06;2.90;;;1.67;;
26756;SDS011;23848;49.798;10.228;2023-12-28T16:32:44;3.85;;;1.50;;
26756;SDS011;23848;49.798;10.228;2023-12-28T16:35:39;2.45;;;1.60;;
26756;SDS011;23848;49.798;10.228;2023-12-28T16:38:23;2.45;;;1.25;;
26756;SDS011;23848;49.798;10.228;2023-12-28T16:41:05;3.50;;;1.98;;
26756;SDS011;23848;49.798;10.228;2023-12-28T16:43:50;2.85;;;2.10;;
26756;SDS011;23848;49.798;10.228;2023-12-28T16:46:55;3.97;;;2.05;;
26756;SDS011;23848;49.798;10.228;2023-12-28T16:49:49;3.03;;;1.92;;
26756;SDS011;23848;49.798;10.228;2023-12-28T16:52:32;3.63;;;1.95;;
26756;SDS011;23848;49.798;10.228;2023-12-28T16:55:23;3.60;;;1.80;;
26756;SDS011;23848;49.798;10.228;2023-12-28T16:58:06;3.03;;;1.90;;
26756;SDS011;23848;49.798;10.228;2023-12-28T17:00:41;4.90;;;2.75;;
26756;SDS011;23848;49.798;10.228;2023-12-28T17:05:49;3.33;;;1.95;;
26756;SDS011;23848;49.798;10.228;2023-12-28T17:08:33;3.80;;;2.38;;
26756;SDS011;23848;49.798;10.228;2023-12-28T17:11:01;3.53;;;2.10;;
26756;SDS011;23848;49.798;10.228;2023-12-28T17:13:44;3.43;;;2.07;;
26756;SDS011;23848;49.798;10.228;2023-12-28T17:16:24;3.53;;;1.95;;
26756;SDS011;23848;49.798;10.228;2023-12-28T17:18:59;3.53;;;1.90;;
26756;SDS011;23848;49.798;10.228;2023-12-28T17:21:30;3.08;;;1.73;;
26756;SDS011;23848;49.798;10.228;2023-12-28T17:24:06;3.90;;;1.83;;
26756;SDS011;23848;49.798;10.228;2023-12-28T17:26:46;2.33;;;1.50;;
26756;SDS011;23848;49.798;10.228;2023-12-28T17:29:36;2.42;;;1.50;;
26756;SDS011;23848;49.798;10.228;2023-12-28T17:32:19;3.88;;;1.80;;
26756;SDS011;23848;49.798;10.228;2023-12-28T17:34:57;3.38;;;1.90;;
26756;SDS011;23848;49.798;10.228;2023-12-28T17:37:32;3.63;;;1.90;;
26756;SDS011;23848;49.798;10.228;2023-12-28T17:40:05;2.67;;;1.70;;
26756;SDS011;23848;49.798;10.228;2023-12-28T17:42:35;6.00;;;2.00;;
26756;SDS011;23848;49.798;10.228;2023-12-28T17:45:06;3.30;;;1.80;;
26756;SDS011;23848;49.798;10.228;2023-12-28T17:47:36;4.00;;;2.50;;
26756;SDS011;23848;49.798;10.228;2023-12-28T17:50:07;4.53;;;2.60;;
26756;SDS011;23848;49.798;10.228;2023-12-28T17:52:36;4.35;;;2.55;;
26756;SDS011;23848;49.798;10.228;2023-12-28T17:55:07;3.80;;;2.30;;
26756;SDS011;23848;49.798;10.228;2023-12-28T17:57:35;4.05;;;2.55;;
26756;SDS011;23848;49.798;10.228;2023-12-28T18:00:04;4.43;;;2.63;;
26756;SDS011;23848;49.798;10.228;2023-12-28T18:02:33;4.35;;;2.50;;
26756;SDS011;23848;49.798;10.228;2023-12-28T18:05:01;3.92;;;2.40;;
26756;SDS011;23848;49.798;10.228;2023-12-28T18:07:30;2.60;;;1.83;;
26756;SDS011;23848;49.798;10.228;2023-12-28T18:09:58;3.35;;;1.95;;
26756;SDS011;23848;49.798;10.228;2023-12-28T18:12:28;3.33;;;2.13;;
26756;SDS011;23848;49.798;10.228;2023-12-28T18:14:57;3.25;;;2.00;;
26756;SDS011;23848;49.798;10.228;2023-12-28T18:17:25;2.85;;;1.55;;
26756;SDS011;23848;49.798;10.228;2023-12-28T18:19:53;3.85;;;2.22;;
26756;SDS011;23848;49.798;10.228;2023-12-28T18:22:22;3.45;;;2.10;;
26756;SDS011;23848;49.798;10.228;2023-12-28T18:24:51;3.70;;;2.00;;
26756;SDS011;23848;49.798;10.228;2023-12-28T18:27:19;3.47;;;1.90;;
26756;SDS011;23848;49.798;10.228;2023-12-28T18:29:49;4.57;;;1.85;;
26756;SDS011;23848;49.798;10.228;2023-12-28T18:32:19;3.25;;;1.80;;
26756;SDS011;23848;49.798;10.228;2023-12-28T18:34:47;4.13;;;1.95;;
26756;SDS011;23848;49.798;10.228;2023-12-28T18:37:18;3.47;;;2.10;;
26756;SDS011;23848;49.798;10.228;2023-12-28T18:39:46;3.47;;;1.70;;
26756;SDS011;23848;49.798;10.228;2023-12-28T18:42:14;3.50;;;1.90;;
26756;SDS011;23848;49.798;10.228;2023-12-28T18:47:30;3.63;;;2.08;;
26756;SDS011;23848;49.798;10.228;2023-12-28T18:49:59;5.25;;;2.38;;
26756;SDS011;23848;49.798;10.228;2023-12-28T18:52:27;4.85;;;2.90;;
26756;SDS011;23848;49.798;10.228;2023-12-28T18:54:55;4.43;;;2.47;;
26756;SDS011;23848;49.798;10.228;2023-12-28T18:57:25;4.30;;;2.80;;
26756;SDS011;23848;49.798;10.228;2023-12-28T18:59:54;4.63;;;2.65;;
26756;SDS011;23848;49.798;10.228;2023-12-28T19:02:22;5.63;;;3.10;;
26756;SDS011;23848;49.798;10.228;2023-12-28T19:04:53;4.97;;;2.47;;
26756;SDS011;23848;49.798;10.228;2023-12-28T19:07:22;3.40;;;2.20;;
26756;SDS011;23848;49.798;10.228;2023-12-28T19:09:51;3.88;;;2.35;;
26756;SDS011;23848;49.798;10.228;2023-12-28T19:12:19;5.47;;;2.40;;
26756;SDS011;23848;49.798;10.228;2023-12-28T19:14:47;4.40;;;2.47;;
26756;SDS011;23848;49.798;10.228;2023-12-28T19:17:16;3.83;;;2.22;;
26756;SDS011;23848;49.798;10.228;2023-12-28T19:19:44;3.50;;;2.30;;
26756;SDS011;23848;49.798;10.228;2023-12-28T19:22:14;3.20;;;2.03;;
26756;SDS011;23848;49.798;10.228;2023-12-28T19:24:42;4.10;;;2.40;;
26756;SDS011;23848;49.798;10.228;2023-12-28T19:27:10;5.03;;;2.20;;
26756;SDS011;23848;49.798;10.228;2023-12-28T19:29:39;4.03;;;2.08;;
26756;SDS011;23848;49.798;10.228;2023-12-28T19:32:07;3.38;;;1.80;;
26756;SDS011;23848;49.798;10.228;2023-12-28T19:34:37;3.20;;;2.10;;
26756;SDS011;23848;49.798;10.228;2023-12-28T19:37:05;4.05;;;2.47;;
26756;SDS011;23848;49.798;10.228;2023-12-28T19:39:35;4.55;;;2.25;;
26756;SDS011;23848;49.798;10.228;2023-12-28T19:42:04;2.47;;;1.77;;
26756;SDS011;23848;49.798;10.228;2023-12-28T19:44:32;5.65;;;2.15;;
26756;SDS011;23848;49.798;10.228;2023-12-28T19:47:00;3.75;;;2.13;;
26756;SDS011;23848;49.798;10.228;2023-12-28T19:49:29;3.70;;;1.73;;
26756;SDS011;23848;49.798;10.228;2023-12-28T19:51:57;3.08;;;1.50;;
26756;SDS011;23848;49.798;10.228;2023-12-28T19:54:26;3.45;;;1.60;;
26756;SDS011;23848;49.798;10.228;2023-12-28T19:56:56;3.35;;;2.13;;
26756;SDS011;23848;49.798;10.228;2023-12-28T19:59:24;4.35;;;2.25;;
26756;SDS011;23848;49.798;10.228;2023-12-28T20:01:52;3.05;;;1.88;;